createdAt,value
2022-10-02T00:02:00.449Z,91.44
2022-10-02T00:04:03.756Z,91.75
2022-10-02T00:06:14.527Z,92.32
2022-10-02T00:08:32.863Z,92.55
2022-10-02T00:10:44.842Z,92.88
2022-10-02T00:12:50.038Z,93.05
2022-10-02T00:14:55.901Z,93.12
2022-10-02T00:17:00.786Z,93.26
2022-10-02T00:19:03.060Z,93.33
2022-10-02T00:21:16.100Z,93.30
2022-10-02T00:23:39.507Z,93.72
2022-10-02T00:25:53.868Z,93.51
2022-10-02T00:28:17.516Z,93.83
2022-10-02T00:30:19.176Z,93.94
2022-10-02T00:32:31.263Z,93.93
2022-10-02T00:35:16.634Z,93.87
2022-10-02T00:37:41.035Z,93.81
2022-10-02T00:40:09.657Z,93.88
2022-10-02T00:42:26.051Z,93.98
2022-10-02T00:44:52.705Z,94.13
2022-10-02T00:46:54.094Z,93.93
2022-10-02T00:49:01.235Z,93.71
2022-10-02T00:51:30.841Z,93.87
2022-10-02T00:53:49.329Z,93.70
2022-10-02T00:56:18.562Z,93.95
2022-10-02T00:58:45.070Z,94.17
2022-10-02T01:00:55.696Z,94.18
2022-10-02T01:03:23.799Z,94.07
2022-10-02T01:05:27.362Z,94.09
2022-10-02T01:07:29.407Z,94.29
2022-10-02T01:09:31.004Z,94.28
2022-10-02T01:11:35.010Z,94.48
2022-10-02T01:13:36.795Z,94.45
2022-10-02T01:15:51.576Z,94.38
2022-10-02T01:17:53.625Z,94.25
2022-10-02T01:19:55.941Z,93.91
2022-10-02T01:22:08.436Z,94.02
2022-10-02T01:24:32.138Z,94.15
2022-10-02T01:26:33.930Z,94.33
2022-10-02T01:28:35.639Z,94.38
2022-10-02T01:30:40.976Z,94.27
2022-10-02T01:33:01.489Z,94.73
2022-10-02T01:35:03.146Z,94.91
2022-10-02T01:37:05.178Z,95.37
2022-10-02T01:39:06.905Z,95.63
2022-10-02T01:41:11.982Z,95.65
2022-10-02T01:43:25.960Z,95.94
2022-10-02T01:45:52.770Z,95.63
2022-10-02T01:48:19.584Z,95.98
2022-10-02T01:50:42.214Z,95.92
2022-10-02T01:53:03.808Z,96.04
2022-10-02T01:55:20.427Z,96.43
2022-10-02T01:57:36.876Z,96.37
2022-10-02T01:59:46.840Z,96.95
2022-10-02T02:02:17.925Z,97.28
2022-10-02T02:04:25.298Z,97.75
2022-10-02T02:07:05.833Z,97.75
2022-10-02T02:09:19.258Z,98.04
2022-10-02T02:11:21.918Z,98.38
2022-10-02T02:13:35.776Z,98.76
2022-10-02T02:15:49.155Z,98.90
2022-10-02T02:18:03.938Z,98.65
2022-10-02T02:20:13.788Z,98.58
2022-10-02T02:22:24.507Z,98.38
2022-10-02T02:24:34.021Z,98.38
2022-10-02T02:26:36.938Z,98.38
2022-10-02T02:28:45.351Z,98.20
2022-10-02T02:30:50.709Z,98.14
2022-10-02T02:33:01.932Z,98.13
2022-10-02T02:35:22.212Z,98.27
2022-10-02T02:37:27.767Z,98.22
2022-10-02T02:39:57.648Z,98.13
2022-10-02T02:42:03.517Z,98.07
2022-10-02T02:44:32.742Z,98.19
2022-10-02T02:47:02.452Z,98.38
2022-10-02T02:49:11.323Z,98.61
2022-10-02T02:51:21.172Z,98.74
2022-10-02T02:53:22.567Z,98.94
2022-10-02T02:55:45.699Z,99.04
2022-10-02T02:57:58.847Z,99.22
2022-10-02T03:00:02.198Z,99.26
2022-10-02T03:02:03.659Z,99.32
2022-10-02T03:04:05.781Z,99.36
2022-10-02T03:06:16.247Z,99.56
2022-10-02T03:08:37.563Z,99.90
2022-10-02T03:11:07.855Z,100.00
2022-10-02T03:13:18.358Z,100.00
2022-10-02T03:16:03.848Z,100.00
2022-10-02T03:18:24.509Z,100.00
2022-10-02T03:20:41.663Z,100.00
2022-10-02T03:23:14.318Z,100.00
2022-10-02T03:25:19.600Z,100.00
2022-10-02T03:27:34.987Z,100.00
2022-10-02T03:30:13.735Z,100.00
2022-10-02T03:32:16.827Z,100.00
2022-10-02T03:34:19.199Z,100.00
2022-10-02T03:36:22.322Z,100.00
2022-10-02T03:38:25.326Z,100.00
2022-10-02T03:40:27.364Z,100.00
2022-10-02T03:42:33.032Z,100.00
2022-10-02T03:44:34.480Z,100.00
2022-10-02T03:46:36.239Z,100.00
2022-10-02T03:48:37.992Z,100.00
2022-10-02T03:50:39.465Z,100.00
2022-10-02T03:52:41.623Z,100.00
2022-10-02T03:54:44.002Z,100.00
2022-10-02T03:56:54.229Z,100.00
2022-10-02T03:59:00.439Z,100.00
2022-10-02T04:01:11.639Z,100.00
2022-10-02T04:03:18.299Z,100.00
2022-10-02T04:05:25.946Z,100.00
2022-10-02T04:07:39.716Z,100.00
2022-10-02T04:09:46.567Z,100.00
2022-10-02T04:11:55.345Z,100.00
2022-10-02T04:14:20.737Z,100.00
2022-10-02T04:16:40.762Z,100.00
2022-10-02T04:19:15.315Z,100.00
2022-10-02T04:21:54.583Z,100.00
2022-10-02T04:24:09.404Z,100.00
2022-10-02T04:26:17.739Z,100.00
2022-10-02T04:28:24.992Z,100.00
2022-10-02T04:30:26.708Z,100.00
2022-10-02T04:32:33.126Z,100.00
2022-10-02T04:34:34.578Z,100.00
2022-10-02T04:36:44.649Z,100.00
2022-10-02T04:38:54.831Z,100.00
2022-10-02T04:41:36.857Z,100.00
2022-10-02T04:44:10.807Z,100.00
2022-10-02T04:46:21.138Z,100.00
2022-10-02T04:48:39.996Z,100.00
2022-10-02T04:50:53.541Z,100.00
2022-10-02T04:53:18.289Z,100.00
2022-10-02T04:55:31.948Z,100.00
2022-10-02T04:58:03.964Z,100.00
2022-10-02T05:00:19.835Z,100.00
2022-10-02T05:02:30.519Z,100.00
2022-10-02T05:04:47.105Z,100.00
2022-10-02T05:07:00.770Z,100.00
2022-10-02T05:09:12.361Z,100.00
2022-10-02T05:11:16.435Z,100.00
2022-10-02T05:13:24.059Z,100.00
2022-10-02T05:15:41.568Z,100.00
2022-10-02T05:18:02.633Z,100.00
2022-10-02T05:20:07.119Z,100.00
2022-10-02T05:22:32.279Z,100.00
2022-10-02T05:24:46.691Z,100.00
2022-10-02T05:27:27.435Z,100.00
2022-10-02T05:29:52.921Z,100.00
2022-10-02T05:32:00.336Z,100.00
2022-10-02T05:34:24.919Z,100.00
2022-10-02T05:36:41.624Z,100.00
2022-10-02T05:39:07.253Z,100.00
2022-10-02T05:41:33.501Z,100.00
2022-10-02T05:43:50.840Z,100.00
2022-10-02T05:46:23.882Z,100.00
2022-10-02T05:48:41.086Z,100.00
2022-10-02T05:50:46.289Z,100.00
2022-10-02T05:53:14.290Z,100.00
2022-10-02T05:55:22.206Z,100.00
2022-10-02T05:57:41.566Z,100.00
2022-10-02T05:59:54.573Z,100.00
2022-10-02T06:01:58.101Z,100.00
2022-10-02T06:04:05.573Z,100.00
2022-10-02T06:06:32.233Z,100.00
2022-10-02T06:08:58.943Z,100.00
2022-10-02T06:11:10.108Z,100.00
2022-10-02T06:13:37.830Z,100.00
2022-10-02T06:16:05.069Z,100.00
2022-10-02T06:18:11.883Z,100.00
2022-10-02T06:20:39.452Z,100.00
2022-10-02T06:23:11.825Z,100.00
2022-10-02T06:25:25.448Z,100.00
2022-10-02T06:27:46.845Z,100.00
2022-10-02T06:29:53.198Z,100.00
2022-10-02T06:32:30.252Z,100.00
2022-10-02T06:34:31.736Z,100.00
2022-10-02T06:36:39.591Z,100.00
2022-10-02T06:39:02.634Z,100.00
2022-10-02T06:41:25.118Z,100.00
2022-10-02T06:43:52.921Z,100.00
2022-10-02T06:46:09.867Z,100.00
2022-10-02T06:48:41.027Z,100.00
2022-10-02T06:51:17.117Z,100.00
2022-10-02T06:53:40.029Z,100.00
2022-10-02T06:55:51.163Z,100.00
2022-10-02T06:58:17.392Z,100.00
2022-10-02T07:00:21.840Z,100.00
2022-10-02T07:02:23.324Z,100.00
2022-10-02T07:04:54.311Z,100.00
2022-10-02T07:07:30.967Z,100.00
2022-10-02T07:09:41.687Z,100.00
2022-10-02T07:12:04.793Z,100.00
2022-10-02T07:14:44.078Z,100.00
2022-10-02T07:16:59.328Z,100.00
2022-10-02T07:19:13.021Z,99.69
2022-10-02T07:21:26.517Z,99.50
2022-10-02T07:23:57.727Z,99.35
2022-10-02T07:26:24.694Z,99.50
2022-10-02T07:28:35.397Z,99.28
2022-10-02T07:31:01.145Z,99.62
2022-10-02T07:33:15.233Z,98.91
2022-10-02T07:35:19.699Z,98.85
2022-10-02T07:37:57.377Z,98.69
2022-10-02T07:40:34.695Z,98.28
2022-10-02T07:42:51.264Z,98.02
2022-10-02T07:45:25.103Z,98.11
2022-10-02T07:47:32.465Z,97.35
2022-10-02T07:49:43.056Z,97.07
2022-10-02T07:52:05.981Z,97.24
2022-10-02T07:54:33.755Z,96.57
2022-10-02T07:56:36.759Z,96.31
2022-10-02T07:58:43.776Z,95.89
2022-10-02T08:00:52.510Z,95.81
2022-10-02T08:02:56.974Z,95.70
2022-10-02T08:05:02.582Z,95.55
2022-10-02T08:07:06.433Z,94.79
2022-10-02T08:09:15.993Z,94.49
2022-10-02T08:11:29.368Z,94.11
2022-10-02T08:13:39.600Z,93.85
2022-10-02T08:15:44.384Z,93.46
2022-10-02T08:17:58.762Z,92.92
2022-10-02T08:20:29.398Z,92.00
2022-10-02T08:22:39.196Z,91.45
2022-10-02T08:24:49.186Z,91.20
2022-10-02T08:27:06.423Z,90.86
2022-10-02T08:29:26.080Z,90.36
2022-10-02T08:31:27.929Z,89.91
2022-10-02T08:33:31.262Z,90.30
2022-10-02T08:35:46.833Z,90.18
2022-10-02T08:38:20.218Z,90.45
2022-10-02T08:41:09.108Z,89.52
2022-10-02T08:43:22.861Z,89.13
2022-10-02T08:46:26.066Z,87.81
2022-10-02T08:48:37.101Z,86.96
2022-10-02T08:51:14.788Z,85.62
2022-10-02T08:53:22.021Z,85.88
2022-10-02T08:55:47.166Z,85.47
2022-10-02T08:58:13.355Z,85.56
2022-10-02T09:00:35.869Z,85.74
2022-10-02T09:03:05.378Z,85.65
2022-10-02T09:05:21.905Z,85.72
2022-10-02T09:07:54.413Z,85.81
2022-10-02T09:10:20.771Z,86.67
2022-10-02T09:12:44.098Z,85.96
2022-10-02T09:15:06.016Z,86.48
2022-10-02T09:17:35.511Z,86.22
2022-10-02T09:19:51.910Z,86.51
2022-10-02T09:22:00.663Z,86.55
2022-10-02T09:24:52.695Z,86.80
2022-10-02T09:27:23.569Z,86.44
2022-10-02T09:29:50.207Z,86.66
2022-10-02T09:32:14.865Z,86.19
2022-10-02T09:34:34.168Z,86.04
2022-10-02T09:36:45.911Z,86.13
2022-10-02T09:39:02.763Z,84.96
2022-10-02T09:41:44.338Z,81.95
2022-10-02T09:44:11.692Z,82.33
2022-10-02T09:46:55.118Z,80.45
2022-10-02T09:49:25.485Z,78.90
2022-10-02T09:51:56.281Z,78.67
2022-10-02T09:54:10.214Z,78.11
2022-10-02T09:56:49.637Z,78.57
2022-10-02T09:59:09.848Z,78.10
2022-10-02T10:01:20.438Z,77.76
2022-10-02T10:03:22.702Z,77.32
2022-10-02T10:05:42.780Z,77.18
2022-10-02T10:08:18.903Z,77.94
2022-10-02T10:10:50.805Z,78.66
2022-10-02T10:13:25.276Z,77.84
2022-10-02T10:15:57.584Z,77.96
2022-10-02T10:18:42.470Z,77.08
2022-10-02T10:20:54.131Z,77.18
2022-10-02T10:25:14.087Z,77.16
2022-10-02T10:27:47.344Z,77.36
2022-10-02T10:30:07.029Z,76.75
2022-10-02T10:32:26.578Z,75.36
2022-10-02T10:34:52.762Z,74.56
2022-10-02T10:37:23.946Z,72.44
2022-10-02T10:39:43.869Z,72.47
2022-10-02T10:42:01.732Z,71.58
2022-10-02T10:44:34.898Z,70.41
2022-10-02T10:46:43.443Z,71.29
2022-10-02T10:48:50.745Z,72.18
2022-10-02T10:51:16.895Z,71.48
2022-10-02T10:54:01.004Z,70.69
2022-10-02T10:56:23.735Z,68.53
2022-10-02T10:58:55.523Z,67.98
2022-10-02T11:01:14.162Z,67.93
2022-10-02T11:03:53.116Z,67.02
2022-10-02T11:06:30.354Z,67.22
2022-10-02T11:08:54.315Z,65.94
2022-10-02T11:11:07.802Z,65.48
2022-10-02T11:13:22.323Z,63.99
2022-10-02T11:15:42.404Z,59.88
2022-10-02T11:18:18.566Z,59.25
2022-10-02T11:20:47.994Z,59.22
2022-10-02T11:23:02.456Z,59.82
2022-10-02T11:25:25.719Z,58.57
2022-10-02T11:27:57.534Z,60.00
2022-10-02T11:30:13.551Z,60.06
2022-10-02T11:32:31.702Z,59.93
2022-10-02T11:35:08.472Z,59.47
2022-10-02T11:37:51.283Z,59.86
2022-10-02T11:39:58.657Z,59.69
2022-10-02T11:42:34.572Z,60.14
2022-10-02T11:44:51.980Z,61.21
2022-10-02T11:46:53.405Z,59.63
2022-10-02T11:49:27.079Z,60.13
2022-10-02T11:51:53.441Z,60.60
2022-10-02T11:54:22.781Z,60.77
2022-10-02T11:56:47.432Z,60.39
2022-10-02T11:59:24.385Z,60.20
2022-10-02T12:01:38.678Z,60.08
2022-10-02T12:03:50.980Z,60.05
2022-10-02T12:06:02.856Z,59.60
2022-10-02T12:08:34.297Z,60.41
2022-10-02T12:10:53.840Z,60.42
2022-10-02T12:13:16.407Z,62.33
2022-10-02T12:15:34.586Z,61.78
2022-10-02T12:18:00.305Z,62.10
2022-10-02T12:20:44.473Z,61.75
2022-10-02T12:23:31.264Z,63.29
2022-10-02T12:26:12.545Z,66.25
2022-10-02T12:28:28.593Z,68.15
2022-10-02T12:30:42.692Z,65.76
2022-10-02T12:33:13.030Z,65.71
2022-10-02T12:35:27.573Z,69.73
2022-10-02T12:37:50.419Z,72.62
2022-10-02T12:40:13.861Z,74.55
2022-10-02T12:42:47.595Z,75.36
2022-10-02T12:45:10.743Z,76.78
2022-10-02T12:47:18.881Z,78.10
2022-10-02T12:49:29.406Z,78.96
2022-10-02T12:51:48.818Z,79.86
2022-10-02T12:54:21.360Z,81.45
2022-10-02T12:57:01.047Z,82.25
2022-10-02T12:59:08.028Z,83.04
2022-10-02T13:01:30.733Z,84.44
2022-10-02T13:04:00.248Z,84.81
2022-10-02T13:06:37.244Z,86.01
2022-10-02T13:08:53.096Z,86.13
2022-10-02T13:11:05.980Z,85.76
2022-10-02T13:13:13.883Z,84.88
2022-10-02T13:15:25.090Z,84.66
2022-10-02T13:17:46.254Z,84.25
2022-10-02T13:19:53.745Z,84.11
2022-10-02T13:21:58.981Z,83.55
2022-10-02T13:24:03.243Z,82.93
2022-10-02T13:26:13.261Z,82.70
2022-10-02T13:28:33.964Z,83.12
2022-10-02T13:30:47.351Z,82.21
2022-10-02T13:33:16.034Z,82.13
2022-10-02T13:35:35.961Z,81.81
2022-10-02T13:38:01.020Z,81.63
2022-10-02T13:40:21.407Z,81.85
2022-10-02T13:42:43.624Z,82.00
2022-10-02T13:44:48.720Z,82.01
2022-10-02T13:47:02.330Z,82.38
2022-10-02T13:49:28.729Z,82.46
2022-10-02T13:51:36.473Z,81.42
2022-10-02T13:53:53.109Z,80.93
2022-10-02T13:56:15.470Z,80.96
2022-10-02T13:58:38.993Z,81.44
2022-10-02T14:00:51.170Z,81.18
2022-10-02T14:03:20.371Z,79.87
2022-10-02T14:05:41.840Z,79.36
2022-10-02T14:07:58.123Z,78.76
2022-10-02T14:10:08.396Z,78.57
2022-10-02T14:12:20.435Z,76.83
2022-10-02T14:14:28.388Z,75.85
2022-10-02T14:16:32.866Z,74.80
2022-10-02T14:19:13.225Z,72.24
2022-10-02T14:21:31.502Z,73.45
2022-10-02T14:24:00.135Z,71.78
2022-10-02T14:26:13.627Z,71.36
2022-10-02T14:29:07.745Z,70.63
2022-10-02T14:31:45.239Z,70.42
2022-10-02T14:33:58.543Z,70.26
2022-10-02T14:36:09.895Z,69.76
2022-10-02T14:38:36.144Z,70.61
2022-10-02T14:41:21.120Z,69.42
2022-10-02T14:43:51.550Z,69.53
2022-10-02T14:46:05.033Z,68.77
2022-10-02T14:48:34.928Z,68.79
2022-10-02T14:50:56.063Z,69.09
2022-10-02T14:53:04.295Z,68.23
2022-10-02T14:55:18.685Z,66.98
2022-10-02T14:57:36.330Z,68.08
2022-10-02T14:59:49.788Z,68.97
2022-10-02T15:02:08.638Z,69.09
2022-10-02T15:04:31.692Z,69.77
2022-10-02T15:06:38.961Z,70.77
2022-10-02T15:08:45.891Z,70.31
2022-10-02T15:10:51.601Z,69.85
2022-10-02T15:13:02.000Z,70.12
2022-10-02T15:15:05.018Z,69.43
2022-10-02T15:17:32.514Z,69.63
2022-10-02T15:19:49.093Z,69.65
2022-10-02T15:21:59.140Z,70.17
2022-10-02T15:24:31.557Z,70.31
2022-10-02T15:26:58.948Z,69.70
2022-10-02T15:29:15.434Z,70.12
2022-10-02T15:31:44.247Z,70.42
2022-10-02T15:33:57.634Z,70.49
2022-10-02T15:36:14.239Z,70.64
2022-10-02T15:38:47.525Z,71.02
2022-10-02T15:41:19.822Z,71.09
2022-10-02T15:43:37.696Z,71.11
2022-10-02T15:46:00.903Z,71.50
2022-10-02T15:48:20.643Z,71.32
2022-10-02T15:50:32.039Z,71.68
2022-10-02T15:52:42.385Z,71.98
2022-10-02T15:55:20.741Z,71.42
2022-10-02T15:57:53.397Z,71.89
2022-10-02T16:00:12.204Z,72.57
2022-10-02T16:02:53.232Z,72.35
2022-10-02T16:05:24.698Z,72.63
2022-10-02T16:07:53.487Z,72.52
2022-10-02T16:10:17.259Z,72.43
2022-10-02T16:12:25.194Z,72.01
2022-10-02T16:14:39.998Z,72.17
2022-10-02T16:16:41.915Z,72.28
2022-10-02T16:19:01.778Z,72.26
2022-10-02T16:21:39.988Z,72.08
2022-10-02T16:24:01.565Z,72.33
2022-10-02T16:26:43.104Z,72.61
2022-10-02T16:29:01.258Z,71.88
2022-10-02T16:31:11.063Z,72.22
2022-10-02T16:33:31.494Z,71.96
2022-10-02T16:35:57.816Z,71.92
2022-10-02T16:38:10.871Z,72.08
2022-10-02T16:40:25.816Z,72.25
2022-10-02T16:42:46.550Z,72.52
2022-10-02T16:45:15.767Z,72.92
2022-10-02T16:47:42.834Z,73.10
2022-10-02T16:49:58.883Z,73.83
2022-10-02T16:52:22.036Z,74.16
2022-10-02T16:54:37.008Z,74.75
2022-10-02T16:57:04.719Z,75.25
2022-10-02T16:59:18.080Z,75.67
2022-10-02T17:01:53.544Z,75.62
2022-10-02T17:04:24.007Z,76.03
2022-10-02T17:06:30.579Z,76.04
2022-10-02T17:08:47.839Z,76.39
2022-10-02T17:11:20.284Z,76.50
2022-10-02T17:13:43.307Z,76.63
2022-10-02T17:15:52.142Z,76.82
2022-10-02T17:18:12.345Z,76.59
2022-10-02T17:20:23.116Z,76.82
2022-10-02T17:23:00.828Z,76.68
2022-10-02T17:25:16.804Z,76.93
2022-10-02T17:27:35.317Z,76.93
2022-10-02T17:29:45.501Z,77.35
2022-10-02T17:31:55.980Z,77.16
2022-10-02T17:34:05.628Z,77.54
2022-10-02T17:36:19.509Z,77.31
2022-10-02T17:38:44.325Z,77.45
2022-10-02T17:40:54.273Z,77.51
2022-10-02T17:43:02.726Z,77.66
2022-10-02T17:45:29.503Z,77.47
2022-10-02T17:47:40.038Z,77.50
2022-10-02T17:49:50.612Z,77.92
2022-10-02T17:52:35.866Z,77.70
2022-10-02T17:55:05.654Z,77.91
2022-10-02T17:57:37.959Z,77.85
2022-10-02T18:00:00.252Z,78.17
2022-10-02T18:02:07.745Z,78.12
2022-10-02T18:04:46.784Z,78.30
2022-10-02T18:07:25.698Z,78.33
2022-10-02T18:09:38.596Z,78.94
2022-10-02T18:11:51.250Z,78.67
2022-10-02T18:14:02.834Z,78.90
2022-10-02T18:16:26.183Z,79.14
2022-10-02T18:19:07.584Z,79.22
2022-10-02T18:21:26.689Z,79.19
2022-10-02T18:23:58.524Z,79.71
2022-10-02T18:26:29.706Z,79.53
2022-10-02T18:28:49.380Z,80.01
2022-10-02T18:30:56.855Z,79.95
2022-10-02T18:33:07.298Z,80.31
2022-10-02T18:35:32.142Z,80.67
2022-10-02T18:37:57.215Z,81.30
2022-10-02T18:40:22.439Z,81.96
2022-10-02T18:42:42.195Z,82.38
2022-10-02T18:44:54.947Z,82.31
2022-10-02T18:47:06.314Z,82.94
2022-10-02T18:49:37.494Z,82.91
2022-10-02T18:52:07.030Z,83.16
2022-10-02T18:54:27.467Z,83.74
2022-10-02T18:56:51.835Z,83.76
2022-10-02T18:58:53.489Z,84.15
2022-10-02T19:01:25.657Z,83.83
2022-10-02T19:03:44.043Z,84.17
2022-10-02T19:06:08.566Z,84.51
2022-10-02T19:08:20.140Z,84.74
2022-10-02T19:10:29.141Z,84.90
2022-10-02T19:12:31.172Z,84.87
2022-10-02T19:14:36.161Z,84.76
2022-10-02T19:16:37.696Z,85.26
2022-10-02T19:18:40.034Z,85.29
2022-10-02T19:20:44.146Z,85.36
2022-10-02T19:22:47.004Z,85.61
2022-10-02T19:24:55.646Z,85.03
2022-10-02T19:27:02.365Z,85.54
2022-10-02T19:29:27.569Z,85.22
2022-10-02T19:31:31.247Z,85.70
2022-10-02T19:33:35.463Z,85.20
2022-10-02T19:35:43.111Z,85.71
2022-10-02T19:37:48.505Z,85.90
2022-10-02T19:39:57.773Z,86.26
2022-10-02T19:42:08.009Z,86.04
2022-10-02T19:44:31.189Z,86.14
2022-10-02T19:46:43.117Z,86.14
2022-10-02T19:48:44.768Z,86.50
2022-10-02T19:50:53.219Z,86.73
2022-10-02T19:53:01.165Z,87.19
2022-10-02T19:55:16.899Z,87.71
2022-10-02T19:57:24.149Z,87.38
2022-10-02T19:59:41.708Z,88.00
2022-10-02T20:01:49.621Z,88.25
2022-10-02T20:04:03.529Z,88.06
2022-10-02T20:06:19.982Z,88.19
2022-10-02T20:08:35.177Z,88.10
2022-10-02T20:11:01.679Z,88.58
2022-10-02T20:13:14.753Z,88.88
2022-10-02T20:15:46.492Z,88.49
2022-10-02T20:17:47.929Z,89.16
2022-10-02T20:19:52.796Z,88.81
2022-10-02T20:21:57.915Z,89.00
2022-10-02T20:24:01.161Z,89.32
2022-10-02T20:26:08.819Z,89.37
2022-10-02T20:28:19.736Z,89.49
2022-10-02T20:30:23.336Z,89.42
2022-10-02T20:32:31.448Z,89.42
2022-10-02T20:35:02.644Z,89.58
2022-10-02T20:37:09.907Z,89.54
2022-10-02T20:39:16.380Z,89.61
2022-10-02T20:41:23.485Z,89.60
2022-10-02T20:43:48.323Z,90.04
2022-10-02T20:46:16.093Z,90.19
2022-10-02T20:48:20.675Z,90.28
2022-10-02T20:50:40.371Z,90.37
2022-10-02T20:53:16.010Z,90.14
2022-10-02T20:55:40.390Z,90.50
2022-10-02T20:58:01.190Z,90.73
2022-10-02T21:00:15.147Z,90.75
2022-10-02T21:02:48.067Z,90.78
2022-10-02T21:05:08.715Z,90.96
2022-10-02T21:07:23.906Z,90.98
2022-10-02T21:09:37.376Z,90.89
2022-10-02T21:12:11.135Z,90.94
2022-10-02T21:14:25.231Z,90.95
2022-10-02T21:16:29.633Z,90.88
2022-10-02T21:18:34.031Z,91.13
2022-10-02T21:20:50.428Z,91.02
2022-10-02T21:23:14.648Z,91.18
2022-10-02T21:25:28.404Z,91.57
2022-10-02T21:28:07.334Z,90.87
2022-10-02T21:30:16.498Z,90.47
2022-10-02T21:32:29.915Z,89.91
2022-10-02T21:34:46.642Z,86.98
2022-10-02T21:37:17.263Z,87.17
2022-10-02T21:39:52.054Z,87.50
2022-10-02T21:42:34.574Z,89.01
2022-10-02T21:44:54.484Z,89.58
2022-10-02T21:47:21.675Z,89.77
2022-10-02T21:49:45.021Z,90.50
2022-10-02T21:51:49.397Z,90.61
2022-10-02T21:54:14.142Z,90.88
2022-10-02T21:56:49.643Z,91.14
2022-10-02T21:59:14.121Z,91.31
2022-10-02T22:01:36.292Z,91.21
2022-10-02T22:04:08.450Z,91.46
2022-10-02T22:06:22.996Z,91.91
2022-10-02T22:08:51.543Z,91.74
2022-10-02T22:10:56.039Z,91.88
2022-10-02T22:13:18.211Z,92.03
2022-10-02T22:15:25.753Z,92.26
2022-10-02T22:17:56.224Z,92.33
2022-10-02T22:20:18.575Z,92.12
2022-10-02T22:22:20.007Z,92.58
2022-10-02T22:25:03.640Z,92.59
2022-10-02T22:27:20.293Z,92.88
2022-10-02T22:29:48.200Z,92.59
2022-10-02T22:32:53.283Z,92.81
2022-10-02T22:35:06.187Z,92.61
2022-10-02T22:37:44.452Z,92.96
2022-10-02T22:39:58.619Z,93.27
2022-10-02T22:42:13.856Z,93.29
2022-10-02T22:44:15.241Z,93.45
2022-10-02T22:46:29.865Z,93.20
2022-10-02T22:48:44.332Z,93.01
2022-10-02T22:51:17.831Z,92.99
2022-10-02T22:53:49.596Z,92.98
2022-10-02T22:55:54.705Z,93.28
2022-10-02T22:58:05.642Z,93.18
2022-10-02T23:00:29.508Z,92.98
2022-10-02T23:02:36.980Z,93.06
2022-10-02T23:04:52.622Z,93.06
2022-10-02T23:07:07.965Z,92.99
2022-10-02T23:09:22.820Z,92.95
2022-10-02T23:11:31.811Z,92.96
2022-10-02T23:13:44.895Z,92.91
2022-10-02T23:15:54.788Z,92.80
2022-10-02T23:18:16.643Z,92.71
2022-10-02T23:20:30.990Z,92.58
2022-10-02T23:22:43.793Z,92.65
2022-10-02T23:25:29.149Z,92.61
2022-10-02T23:27:48.349Z,92.54
2022-10-02T23:30:03.433Z,92.72
2022-10-02T23:32:27.135Z,92.86
2022-10-02T23:34:51.890Z,92.81
2022-10-02T23:36:59.814Z,92.89
2022-10-02T23:39:36.961Z,92.98
2022-10-02T23:41:48.012Z,92.80
2022-10-02T23:44:01.759Z,92.72
2022-10-02T23:46:09.516Z,92.61
2022-10-02T23:48:14.209Z,92.76
2022-10-02T23:50:44.982Z,92.63
2022-10-02T23:53:07.526Z,92.75
2022-10-02T23:55:44.074Z,92.51
2022-10-02T23:58:26.248Z,92.47
